Piffard, New York
Current Conditions -  °F | °C
As of 5:54 AM on Sunday 23 Nov 2014 (Local Time) from KDSV Reporting Station
Overcast Overcast  
Wind Chill:   Ceiling: 6000
Heat Index:   Visibility: 10mi
Dew Point:   Wind: 5mph
Humidity: 73%   Direction: 140°SE
Pressure: 30.03"   Gusts: NA
Location:  42.83°N, 77.85°W
Report Text: KDSV 231054Z AUTO 14004KT 10SM SCT038 OVC060 08/03 A3003 RMK AO2 SLP182 T00780033
Loading
Personal Weather Stations






























Interactive Weather Map New forecast layout! Learn more

10-Day Weather Forecast

Advertisements
Track Severe Weather on mobile